sensor_id;sensor_type;location;lat;lon;timestamp;pressure;altitude;pressure_sealevel;temperature;humidity
73952;BME280;62304;47.662;18.324;2023-06-04T00:00:12;100500.34;;;18.10;35.74
73952;BME280;62304;47.662;18.324;2023-06-04T00:03:15;100500.06;;;18.01;35.89
73952;BME280;62304;47.662;18.324;2023-06-04T00:06:18;100494.47;;;17.97;35.89
73952;BME280;62304;47.662;18.324;2023-06-04T00:09:24;100504.94;;;17.93;35.82
73952;BME280;62304;47.662;18.324;2023-06-04T00:12:27;100505.78;;;17.90;36.27
73952;BME280;62304;47.662;18.324;2023-06-04T00:15:30;100513.78;;;17.92;36.87
73952;BME280;62304;47.662;18.324;2023-06-04T00:18:33;100504.47;;;18.02;36.56
73952;BME280;62304;47.662;18.324;2023-06-04T00:21:36;100507.28;;;18.02;36.54
73952;BME280;62304;47.662;18.324;2023-06-04T00:24:39;100506.81;;;18.07;35.82
73952;BME280;62304;47.662;18.324;2023-06-04T00:27:43;100500.09;;;17.97;37.85
73952;BME280;62304;47.662;18.324;2023-06-04T00:30:45;100496.53;;;17.93;36.32
73952;BME280;62304;47.662;18.324;2023-06-04T00:33:48;100488.13;;;17.93;36.93
73952;BME280;62304;47.662;18.324;2023-06-04T00:36:51;100504.69;;;17.77;38.85
73952;BME280;62304;47.662;18.324;2023-06-04T00:39:55;100498.03;;;17.64;37.81
73952;BME280;62304;47.662;18.324;2023-06-04T00:42:58;100488.88;;;17.57;37.73
73952;BME280;62304;47.662;18.324;2023-06-04T00:46:01;100490.88;;;17.53;38.08
73952;BME280;62304;47.662;18.324;2023-06-04T00:49:06;100491.00;;;17.42;37.86
73952;BME280;62304;47.662;18.324;2023-06-04T00:52:09;100498.97;;;17.44;38.01
73952;BME280;62304;47.662;18.324;2023-06-04T00:55:12;100488.53;;;17.48;38.19
73952;BME280;62304;47.662;18.324;2023-06-04T00:58:15;100486.12;;;17.46;38.47
73952;BME280;62304;47.662;18.324;2023-06-04T01:05:03;100479.66;;;17.53;39.63
73952;BME280;62304;47.662;18.324;2023-06-04T01:08:10;100488.91;;;17.53;39.57
73952;BME280;62304;47.662;18.324;2023-06-04T01:11:14;100490.28;;;17.24;41.57
73952;BME280;62304;47.662;18.324;2023-06-04T01:14:17;100493.16;;;17.14;42.27
73952;BME280;62304;47.662;18.324;2023-06-04T01:17:26;100487.53;;;17.17;41.64
73952;BME280;62304;47.662;18.324;2023-06-04T01:20:42;100479.16;;;17.14;42.12
73952;BME280;62304;47.662;18.324;2023-06-04T01:23:51;100485.94;;;17.16;42.20
73952;BME280;62304;47.662;18.324;2023-06-04T01:27:04;100501.59;;;17.10;43.24
73952;BME280;62304;47.662;18.324;2023-06-04T01:30:09;100492.84;;;17.01;43.63
73952;BME280;62304;47.662;18.324;2023-06-04T01:33:15;100493.19;;;17.10;44.06
73952;BME280;62304;47.662;18.324;2023-06-04T01:36:19;100491.94;;;17.15;43.94
73952;BME280;62304;47.662;18.324;2023-06-04T01:39:22;100489.94;;;17.12;44.13
73952;BME280;62304;47.662;18.324;2023-06-04T01:42:25;100495.56;;;17.15;44.90
73952;BME280;62304;47.662;18.324;2023-06-04T01:45:28;100481.53;;;17.19;45.37
73952;BME280;62304;47.662;18.324;2023-06-04T01:48:32;100480.38;;;17.09;44.94
73952;BME280;62304;47.662;18.324;2023-06-04T01:51:35;100478.47;;;16.96;45.86
73952;BME280;62304;47.662;18.324;2023-06-04T01:54:39;100487.16;;;17.12;45.45
73952;BME280;62304;47.662;18.324;2023-06-04T01:57:44;100481.63;;;17.01;47.43
73952;BME280;62304;47.662;18.324;2023-06-04T02:00:49;100484.81;;;17.03;46.41
73952;BME280;62304;47.662;18.324;2023-06-04T02:03:52;100487.97;;;17.12;46.60
73952;BME280;62304;47.662;18.324;2023-06-04T02:06:55;100479.56;;;17.12;46.73
73952;BME280;62304;47.662;18.324;2023-06-04T02:09:59;100481.84;;;17.31;46.04
73952;BME280;62304;47.662;18.324;2023-06-04T02:13:03;100474.25;;;17.25;46.85
73952;BME280;62304;47.662;18.324;2023-06-04T02:16:06;100481.88;;;17.24;46.65
73952;BME280;62304;47.662;18.324;2023-06-04T02:19:09;100489.84;;;17.29;46.78
73952;BME280;62304;47.662;18.324;2023-06-04T02:22:16;100480.69;;;17.22;46.25
73952;BME280;62304;47.662;18.324;2023-06-04T02:25:19;100483.50;;;17.18;46.45
73952;BME280;62304;47.662;18.324;2023-06-04T02:28:23;100484.25;;;17.26;46.22
73952;BME280;62304;47.662;18.324;2023-06-04T02:31:27;100483.44;;;17.25;45.99
73952;BME280;62304;47.662;18.324;2023-06-04T02:34:30;100483.47;;;17.22;46.60
73952;BME280;62304;47.662;18.324;2023-06-04T02:37:33;100481.06;;;17.27;44.61
73952;BME280;62304;47.662;18.324;2023-06-04T02:40:36;100472.94;;;17.36;45.06
73952;BME280;62304;47.662;18.324;2023-06-04T02:43:39;100478.50;;;17.50;45.55
73952;BME280;62304;47.662;18.324;2023-06-04T02:46:43;100474.03;;;17.56;46.67
73952;BME280;62304;47.662;18.324;2023-06-04T02:49:46;100476.38;;;17.61;46.79
73952;BME280;62304;47.662;18.324;2023-06-04T02:52:49;100480.72;;;17.69;46.51
73952;BME280;62304;47.662;18.324;2023-06-04T02:55:52;100493.03;;;17.82;47.13
73952;BME280;62304;47.662;18.324;2023-06-04T02:58:55;100496.56;;;17.46;47.72
73952;BME280;62304;47.662;18.324;2023-06-04T03:01:58;100500.97;;;17.47;47.09
73952;BME280;62304;47.662;18.324;2023-06-04T03:05:02;100500.59;;;17.38;46.77
73952;BME280;62304;47.662;18.324;2023-06-04T03:08:06;100499.53;;;17.21;48.26
73952;BME280;62304;47.662;18.324;2023-06-04T03:11:09;100505.19;;;17.11;48.18
73952;BME280;62304;47.662;18.324;2023-06-04T03:14:13;100505.66;;;16.99;48.91
73952;BME280;62304;47.662;18.324;2023-06-04T03:17:17;100496.09;;;16.93;49.26
73952;BME280;62304;47.662;18.324;2023-06-04T03:20:20;100496.97;;;16.79;48.29
73952;BME280;62304;47.662;18.324;2023-06-04T03:23:27;100498.59;;;16.73;48.88
73952;BME280;62304;47.662;18.324;2023-06-04T03:26:30;100505.88;;;16.60;49.82
73952;BME280;62304;47.662;18.324;2023-06-04T03:29:35;100509.53;;;16.43;51.25
73952;BME280;62304;47.662;18.324;2023-06-04T03:32:38;100510.34;;;16.23;54.70
73952;BME280;62304;47.662;18.324;2023-06-04T03:35:42;100519.59;;;16.16;55.53
73952;BME280;62304;47.662;18.324;2023-06-04T03:38:45;100508.78;;;16.18;56.25
73952;BME280;62304;47.662;18.324;2023-06-04T03:41:49;100522.78;;;16.11;57.40
73952;BME280;62304;47.662;18.324;2023-06-04T03:44:53;100526.41;;;16.01;57.81
73952;BME280;62304;47.662;18.324;2023-06-04T03:47:56;100519.63;;;15.88;56.67
73952;BME280;62304;47.662;18.324;2023-06-04T03:51:00;100525.22;;;15.74;59.33
73952;BME280;62304;47.662;18.324;2023-06-04T03:54:04;100524.84;;;15.76;58.95
73952;BME280;62304;47.662;18.324;2023-06-04T03:57:07;100530.41;;;15.65;60.24
73952;BME280;62304;47.662;18.324;2023-06-04T04:00:11;100528.81;;;15.71;58.52
73952;BME280;62304;47.662;18.324;2023-06-04T04:03:14;100532.03;;;15.73;57.45
73952;BME280;62304;47.662;18.324;2023-06-04T04:06:19;100520.03;;;15.83;56.64
73952;BME280;62304;47.662;18.324;2023-06-04T04:09:22;100526.81;;;15.96;53.73
73952;BME280;62304;47.662;18.324;2023-06-04T04:12:26;100529.97;;;16.12;51.80
73952;BME280;62304;47.662;18.324;2023-06-04T04:15:29;100530.72;;;16.30;48.85
73952;BME280;62304;47.662;18.324;2023-06-04T04:18:34;100534.72;;;16.50;47.02
73952;BME280;62304;47.662;18.324;2023-06-04T04:21:38;100534.66;;;16.64;45.49
73952;BME280;62304;47.662;18.324;2023-06-04T04:24:41;100529.41;;;16.77;45.05
73952;BME280;62304;47.662;18.324;2023-06-04T04:27:45;100531.31;;;16.94;44.34
73952;BME280;62304;47.662;18.324;2023-06-04T04:30:51;100532.84;;;17.05;44.19
73952;BME280;62304;47.662;18.324;2023-06-04T04:33:57;100540.00;;;17.13;44.54
73952;BME280;62304;47.662;18.324;2023-06-04T04:37:00;100534.81;;;17.15;44.72
73952;BME280;62304;47.662;18.324;2023-06-04T04:40:06;100523.97;;;17.17;43.55
73952;BME280;62304;47.662;18.324;2023-06-04T04:43:13;100524.72;;;17.25;42.90
73952;BME280;62304;47.662;18.324;2023-06-04T04:46:16;100529.06;;;17.33;42.68
73952;BME280;62304;47.662;18.324;2023-06-04T04:49:20;100522.25;;;17.41;42.59
73952;BME280;62304;47.662;18.324;2023-06-04T04:52:23;100525.41;;;17.43;42.13
73952;BME280;62304;47.662;18.324;2023-06-04T04:55:27;100527.38;;;17.49;40.86
73952;BME280;62304;47.662;18.324;2023-06-04T04:58:32;100526.06;;;17.64;42.72
73952;BME280;62304;47.662;18.324;2023-06-04T05:01:36;100530.03;;;17.67;41.35
73952;BME280;62304;47.662;18.324;2023-06-04T05:04:39;100537.53;;;17.80;41.60
73952;BME280;62304;47.662;18.324;2023-06-04T05:07:44;100539.63;;;17.73;40.87
73952;BME280;62304;47.662;18.324;2023-06-04T05:10:46;100555.22;;;17.77;40.71
73952;BME280;62304;47.662;18.324;2023-06-04T05:13:50;100549.19;;;17.79;39.72
73952;BME280;62304;47.662;18.324;2023-06-04T05:16:52;100559.59;;;17.78;39.83
73952;BME280;62304;47.662;18.324;2023-06-04T05:19:56;100551.56;;;17.84;41.30
73952;BME280;62304;47.662;18.324;2023-06-04T05:23:15;100556.34;;;17.83;40.11
73952;BME280;62304;47.662;18.324;2023-06-04T05:26:18;100553.88;;;17.92;40.44
73952;BME280;62304;47.662;18.324;2023-06-04T05:29:25;100568.31;;;17.91;39.38
73952;BME280;62304;47.662;18.324;2023-06-04T05:32:29;100567.44;;;18.01;38.66
73952;BME280;62304;47.662;18.324;2023-06-04T05:35:33;100566.09;;;18.12;39.52
73952;BME280;62304;47.662;18.324;2023-06-04T05:38:36;100564.59;;;18.04;40.59
73952;BME280;62304;47.662;18.324;2023-06-04T05:41:40;100572.97;;;18.08;41.66
73952;BME280;62304;47.662;18.324;2023-06-04T05:44:44;100578.53;;;18.15;40.04
73952;BME280;62304;47.662;18.324;2023-06-04T05:47:47;100585.75;;;18.12;39.80
73952;BME280;62304;47.662;18.324;2023-06-04T05:50:51;100584.06;;;18.25;40.29
73952;BME280;62304;47.662;18.324;2023-06-04T05:53:54;100583.75;;;18.13;40.20
73952;BME280;62304;47.662;18.324;2023-06-04T05:56:57;100586.59;;;18.09;39.25
73952;BME280;62304;47.662;18.324;2023-06-04T06:00:00;100588.12;;;18.17;39.39
73952;BME280;62304;47.662;18.324;2023-06-04T06:03:04;100592.03;;;18.27;39.40
73952;BME280;62304;47.662;18.324;2023-06-04T06:06:10;100599.59;;;18.37;39.24
73952;BME280;62304;47.662;18.324;2023-06-04T06:09:16;100602.06;;;18.28;39.30
73952;BME280;62304;47.662;18.324;2023-06-04T06:12:19;100619.34;;;18.26;39.18
73952;BME280;62304;47.662;18.324;2023-06-04T06:15:22;100616.22;;;18.14;39.46
73952;BME280;62304;47.662;18.324;2023-06-04T06:18:27;100622.69;;;18.07;39.46
73952;BME280;62304;47.662;18.324;2023-06-04T06:21:30;100633.84;;;18.18;39.26
73952;BME280;62304;47.662;18.324;2023-06-04T06:24:33;100630.03;;;17.94;39.61
73952;BME280;62304;47.662;18.324;2023-06-04T06:27:37;100627.59;;;17.96;41.11
73952;BME280;62304;47.662;18.324;2023-06-04T06:30:40;100624.84;;;17.89;40.43
73952;BME280;62304;47.662;18.324;2023-06-04T06:33:43;100636.16;;;17.79;40.58
73952;BME280;62304;47.662;18.324;2023-06-04T06:36:46;100640.97;;;17.78;40.89
73952;BME280;62304;47.662;18.324;2023-06-04T06:39:49;100636.50;;;17.84;40.81
73952;BME280;62304;47.662;18.324;2023-06-04T06:42:53;100638.81;;;17.96;41.19
73952;BME280;62304;47.662;18.324;2023-06-04T06:45:56;100639.38;;;18.28;40.95
73952;BME280;62304;47.662;18.324;2023-06-04T06:48:59;100648.41;;;18.02;40.46
73952;BME280;62304;47.662;18.324;2023-06-04T06:52:02;100641.94;;;18.09;40.98
73952;BME280;62304;47.662;18.324;2023-06-04T06:55:06;100638.81;;;17.96;41.18
73952;BME280;62304;47.662;18.324;2023-06-04T06:58:09;100647.94;;;18.11;41.34
73952;BME280;62304;47.662;18.324;2023-06-04T07:01:12;100643.75;;;18.29;41.35
73952;BME280;62304;47.662;18.324;2023-06-04T07:04:15;100647.37;;;18.33;42.40
73952;BME280;62304;47.662;18.324;2023-06-04T07:07:19;100655.13;;;18.63;42.26
73952;BME280;62304;47.662;18.324;2023-06-04T07:10:22;100655.75;;;18.77;41.09
73952;BME280;62304;47.662;18.324;2023-06-04T07:13:25;100660.00;;;18.55;41.51
73952;BME280;62304;47.662;18.324;2023-06-04T07:16:29;100647.63;;;18.86;41.43
73952;BME280;62304;47.662;18.324;2023-06-04T07:19:32;100655.56;;;18.95;41.41
73952;BME280;62304;47.662;18.324;2023-06-04T07:22:35;100664.41;;;18.93;40.85
73952;BME280;62304;47.662;18.324;2023-06-04T07:25:38;100668.22;;;18.76;40.98
73952;BME280;62304;47.662;18.324;2023-06-04T07:28:41;100666.12;;;18.84;40.51
73952;BME280;62304;47.662;18.324;2023-06-04T07:31:44;100666.19;;;18.80;40.49
73952;BME280;62304;47.662;18.324;2023-06-04T07:34:47;100670.41;;;18.95;40.26
73952;BME280;62304;47.662;18.324;2023-06-04T07:37:51;100651.84;;;19.01;40.38
73952;BME280;62304;47.662;18.324;2023-06-04T07:40:53;100658.72;;;19.00;40.37
73952;BME280;62304;47.662;18.324;2023-06-04T07:43:57;100659.38;;;19.11;40.52
73952;BME280;62304;47.662;18.324;2023-06-04T07:47:00;100668.81;;;19.31;40.67
73952;BME280;62304;47.662;18.324;2023-06-04T07:50:04;100662.38;;;19.31;40.55
73952;BME280;62304;47.662;18.324;2023-06-04T07:53:08;100672.31;;;19.68;40.36
73952;BME280;62304;47.662;18.324;2023-06-04T07:56:11;100668.72;;;19.38;40.35
73952;BME280;62304;47.662;18.324;2023-06-04T07:59:14;100665.47;;;19.40;40.53
73952;BME280;62304;47.662;18.324;2023-06-04T08:02:18;100672.88;;;19.83;40.40
73952;BME280;62304;47.662;18.324;2023-06-04T08:05:21;100661.56;;;19.86;39.82
73952;BME280;62304;47.662;18.324;2023-06-04T08:08:24;100677.09;;;19.72;40.38
73952;BME280;62304;47.662;18.324;2023-06-04T08:11:27;100674.87;;;19.86;40.11
73952;BME280;62304;47.662;18.324;2023-06-04T08:14:30;100670.47;;;20.12;40.07
73952;BME280;62304;47.662;18.324;2023-06-04T08:17:34;100675.94;;;20.22;39.88
73952;BME280;62304;47.662;18.324;2023-06-04T08:20:37;100681.81;;;19.78;40.61
73952;BME280;62304;47.662;18.324;2023-06-04T08:23:40;100684.25;;;19.76;40.20
73952;BME280;62304;47.662;18.324;2023-06-04T08:26:43;100678.09;;;19.58;41.76
73952;BME280;62304;47.662;18.324;2023-06-04T08:29:46;100686.84;;;20.20;40.43
73952;BME280;62304;47.662;18.324;2023-06-04T08:32:50;100672.88;;;20.59;39.89
73952;BME280;62304;47.662;18.324;2023-06-04T08:35:53;100685.22;;;20.88;39.88
73952;BME280;62304;47.662;18.324;2023-06-04T08:38:56;100685.50;;;20.97;39.74
73952;BME280;62304;47.662;18.324;2023-06-04T08:42:00;100690.97;;;21.04;41.04
73952;BME280;62304;47.662;18.324;2023-06-04T08:45:10;100678.19;;;20.99;39.82
73952;BME280;62304;47.662;18.324;2023-06-04T08:48:14;100694.03;;;21.13;40.37
73952;BME280;62304;47.662;18.324;2023-06-04T08:51:19;100684.06;;;21.28;39.87
73952;BME280;62304;47.662;18.324;2023-06-04T08:54:23;100691.19;;;20.93;39.89
73952;BME280;62304;47.662;18.324;2023-06-04T08:57:27;100692.66;;;21.40;39.69
73952;BME280;62304;47.662;18.324;2023-06-04T09:00:33;100693.38;;;21.25;39.42
73952;BME280;62304;47.662;18.324;2023-06-04T09:03:36;100691.97;;;20.94;40.49
73952;BME280;62304;47.662;18.324;2023-06-04T09:06:41;100688.91;;;21.08;40.70
73952;BME280;62304;47.662;18.324;2023-06-04T09:09:46;100696.03;;;20.93;38.69
73952;BME280;62304;47.662;18.324;2023-06-04T09:13:06;100691.84;;;21.01;38.60
73952;BME280;62304;47.662;18.324;2023-06-04T09:16:11;100694.87;;;21.10;38.54
73952;BME280;62304;47.662;18.324;2023-06-04T09:19:15;100700.91;;;21.12;38.65
73952;BME280;62304;47.662;18.324;2023-06-04T09:22:18;100699.91;;;21.22;38.82
73952;BME280;62304;47.662;18.324;2023-06-04T09:25:24;100700.25;;;21.43;38.58
73952;BME280;62304;47.662;18.324;2023-06-04T09:28:30;100705.69;;;21.34;38.07
73952;BME280;62304;47.662;18.324;2023-06-04T09:31:34;100703.12;;;22.14;37.06
73952;BME280;62304;47.662;18.324;2023-06-04T09:34:42;100693.75;;;23.79;36.46
73952;BME280;62304;47.662;18.324;2023-06-04T09:37:52;100688.13;;;24.29;33.90
73952;BME280;62304;47.662;18.324;2023-06-04T09:40:56;100689.03;;;23.89;34.21
73952;BME280;62304;47.662;18.324;2023-06-04T09:44:03;100696.47;;;23.70;34.22
73952;BME280;62304;47.662;18.324;2023-06-04T09:47:06;100685.09;;;23.45;34.90
73952;BME280;62304;47.662;18.324;2023-06-04T09:50:11;100691.13;;;23.60;34.33
73952;BME280;62304;47.662;18.324;2023-06-04T09:53:15;100687.06;;;23.73;34.31
73952;BME280;62304;47.662;18.324;2023-06-04T09:56:18;100690.28;;;23.47;34.60
73952;BME280;62304;47.662;18.324;2023-06-04T09:59:21;100698.47;;;23.57;35.68
73952;BME280;62304;47.662;18.324;2023-06-04T10:02:28;100705.34;;;23.15;37.28
73952;BME280;62304;47.662;18.324;2023-06-04T10:05:32;100698.25;;;22.79;37.84
73952;BME280;62304;47.662;18.324;2023-06-04T10:08:39;100706.03;;;22.27;38.43
73952;BME280;62304;47.662;18.324;2023-06-04T10:11:53;100702.31;;;22.30;38.89
73952;BME280;62304;47.662;18.324;2023-06-04T10:15:11;100700.81;;;22.09;39.37
73952;BME280;62304;47.662;18.324;2023-06-04T10:18:15;100713.06;;;22.03;39.77
73952;BME280;62304;47.662;18.324;2023-06-04T10:21:18;100710.63;;;22.05;39.70
73952;BME280;62304;47.662;18.324;2023-06-04T10:24:22;100706.12;;;22.07;40.01
73952;BME280;62304;47.662;18.324;2023-06-04T10:27:27;100715.84;;;21.87;39.38
73952;BME280;62304;47.662;18.324;2023-06-04T10:30:30;100717.47;;;21.88;39.49
73952;BME280;62304;47.662;18.324;2023-06-04T10:33:34;100712.72;;;22.01;39.52
73952;BME280;62304;47.662;18.324;2023-06-04T10:36:44;100714.34;;;22.34;40.06
73952;BME280;62304;47.662;18.324;2023-06-04T10:39:53;100713.47;;;22.21;40.00
73952;BME280;62304;47.662;18.324;2023-06-04T10:42:56;100704.56;;;21.87;40.61
73952;BME280;62304;47.662;18.324;2023-06-04T10:46:14;100705.25;;;21.75;41.21
73952;BME280;62304;47.662;18.324;2023-06-04T10:49:29;100712.63;;;21.30;42.85
73952;BME280;62304;47.662;18.324;2023-06-04T10:52:32;100708.97;;;21.33;43.34
73952;BME280;62304;47.662;18.324;2023-06-04T10:55:43;100718.03;;;21.21;43.73
73952;BME280;62304;47.662;18.324;2023-06-04T10:58:46;100708.22;;;21.09;45.25
73952;BME280;62304;47.662;18.324;2023-06-04T11:01:50;100707.41;;;21.28;45.21
73952;BME280;62304;47.662;18.324;2023-06-04T11:05:03;100707.00;;;21.30;45.10
73952;BME280;62304;47.662;18.324;2023-06-04T11:08:11;100713.94;;;21.06;46.29
73952;BME280;62304;47.662;18.324;2023-06-04T11:11:15;100711.47;;;21.08;46.84
73952;BME280;62304;47.662;18.324;2023-06-04T11:14:18;100712.41;;;21.21;46.64
73952;BME280;62304;47.662;18.324;2023-06-04T11:17:23;100720.66;;;21.51;46.04
73952;BME280;62304;47.662;18.324;2023-06-04T11:20:26;100721.75;;;21.57;46.24
73952;BME280;62304;47.662;18.324;2023-06-04T11:23:29;100724.06;;;21.62;46.26
73952;BME280;62304;47.662;18.324;2023-06-04T11:26:33;100722.84;;;21.24;46.37
73952;BME280;62304;47.662;18.324;2023-06-04T11:29:39;100718.47;;;21.00;46.98
73952;BME280;62304;47.662;18.324;2023-06-04T11:32:42;100718.91;;;20.98;47.30
73952;BME280;62304;47.662;18.324;2023-06-04T11:35:45;100733.56;;;20.90;48.74
73952;BME280;62304;47.662;18.324;2023-06-04T11:38:59;100722.44;;;20.56;50.01
73952;BME280;62304;47.662;18.324;2023-06-04T11:42:05;100727.91;;;20.17;52.46
73952;BME280;62304;47.662;18.324;2023-06-04T11:45:17;100729.84;;;19.94;53.97
73952;BME280;62304;47.662;18.324;2023-06-04T11:48:20;100728.59;;;19.39;58.03
73952;BME280;62304;47.662;18.324;2023-06-04T11:51:24;100729.34;;;19.06;59.86
73952;BME280;62304;47.662;18.324;2023-06-04T11:54:27;100728.00;;;18.80;62.93
73952;BME280;62304;47.662;18.324;2023-06-04T11:57:31;100728.16;;;18.63;63.67
73952;BME280;62304;47.662;18.324;2023-06-04T12:00:34;100733.50;;;18.50;73.02
73952;BME280;62304;47.662;18.324;2023-06-04T12:03:39;100736.66;;;18.52;70.45
73952;BME280;62304;47.662;18.324;2023-06-04T12:06:55;100740.25;;;18.56;73.34
73952;BME280;62304;47.662;18.324;2023-06-04T12:10:07;100741.84;;;18.57;70.98
73952;BME280;62304;47.662;18.324;2023-06-04T12:13:17;100746.44;;;18.37;70.55
73952;BME280;62304;47.662;18.324;2023-06-04T12:16:20;100740.16;;;18.12;70.67
73952;BME280;62304;47.662;18.324;2023-06-04T12:19:23;100753.53;;;17.94;72.85
73952;BME280;62304;47.662;18.324;2023-06-04T12:22:27;100751.16;;;17.89;75.86
73952;BME280;62304;47.662;18.324;2023-06-04T12:25:30;100752.78;;;17.83;80.38
73952;BME280;62304;47.662;18.324;2023-06-04T12:28:34;100752.75;;;17.90;80.11
73952;BME280;62304;47.662;18.324;2023-06-04T12:31:42;100761.56;;;17.92;81.78
73952;BME280;62304;47.662;18.324;2023-06-04T12:34:46;100759.19;;;17.80;81.36
73952;BME280;62304;47.662;18.324;2023-06-04T12:37:50;100760.81;;;17.85;80.35
73952;BME280;62304;47.662;18.324;2023-06-04T12:40:53;100752.09;;;17.65;81.76
73952;BME280;62304;47.662;18.324;2023-06-04T12:43:57;100750.91;;;17.56;86.38
73952;BME280;62304;47.662;18.324;2023-06-04T12:47:00;100752.94;;;17.52;84.42
73952;BME280;62304;47.662;18.324;2023-06-04T12:50:03;100755.31;;;17.60;82.65
73952;BME280;62304;47.662;18.324;2023-06-04T12:53:06;100747.34;;;17.52;85.75
73952;BME280;62304;47.662;18.324;2023-06-04T12:56:10;100747.34;;;17.41;86.04
73952;BME280;62304;47.662;18.324;2023-06-04T12:59:13;100742.16;;;17.33;87.47
73952;BME280;62304;47.662;18.324;2023-06-04T13:02:16;100736.53;;;17.36;85.32
73952;BME280;62304;47.662;18.324;2023-06-04T13:05:19;100736.56;;;17.43;90.11
73952;BME280;62304;47.662;18.324;2023-06-04T13:08:25;100730.53;;;17.41;93.11
73952;BME280;62304;47.662;18.324;2023-06-04T13:11:28;100742.84;;;17.68;86.97
73952;BME280;62304;47.662;18.324;2023-06-04T13:14:31;100734.50;;;17.54;89.52
73952;BME280;62304;47.662;18.324;2023-06-04T13:17:36;100732.91;;;17.53;88.00
73952;BME280;62304;47.662;18.324;2023-06-04T13:20:42;100723.66;;;17.56;89.14
73952;BME280;62304;47.662;18.324;2023-06-04T13:23:45;100723.25;;;17.58;89.73
73952;BME280;62304;47.662;18.324;2023-06-04T13:26:52;100729.22;;;17.63;88.73
73952;BME280;62304;47.662;18.324;2023-06-04T13:29:55;100731.69;;;17.58;90.73
73952;BME280;62304;47.662;18.324;2023-06-04T13:32:58;100728.47;;;17.52;90.40
73952;BME280;62304;47.662;18.324;2023-06-04T13:36:03;100724.91;;;17.52;90.28
73952;BME280;62304;47.662;18.324;2023-06-04T13:39:06;100724.47;;;17.50;91.14
73952;BME280;62304;47.662;18.324;2023-06-04T13:42:10;100716.09;;;17.53;92.16
73952;BME280;62304;47.662;18.324;2023-06-04T13:45:13;100708.81;;;17.56;89.34
73952;BME280;62304;47.662;18.324;2023-06-04T13:48:16;100704.47;;;17.48;91.08
73952;BME280;62304;47.662;18.324;2023-06-04T13:51:19;100718.50;;;17.48;91.21
73952;BME280;62304;47.662;18.324;2023-06-04T13:54:22;100713.28;;;17.46;93.04
73952;BME280;62304;47.662;18.324;2023-06-04T13:57:26;100713.34;;;17.32;92.22
73952;BME280;62304;47.662;18.324;2023-06-04T14:00:30;100707.75;;;17.22;93.19
73952;BME280;62304;47.662;18.324;2023-06-04T14:03:37;100712.22;;;17.05;94.59
73952;BME280;62304;47.662;18.324;2023-06-04T14:06:40;100709.00;;;17.03;96.61
73952;BME280;62304;47.662;18.324;2023-06-04T14:09:43;100701.03;;;16.91;97.04
73952;BME280;62304;47.662;18.324;2023-06-04T14:12:47;100698.59;;;17.07;96.88
73952;BME280;62304;47.662;18.324;2023-06-04T14:15:49;100704.16;;;17.21;97.66
73952;BME280;62304;47.662;18.324;2023-06-04T14:18:53;100703.75;;;17.26;94.83
73952;BME280;62304;47.662;18.324;2023-06-04T14:21:56;100699.28;;;17.43;96.64
73952;BME280;62304;47.662;18.324;2023-06-04T14:24:59;100694.81;;;17.56;94.79
73952;BME280;62304;47.662;18.324;2023-06-04T14:28:04;100700.78;;;17.65;93.87
73952;BME280;62304;47.662;18.324;2023-06-04T14:31:07;100692.88;;;17.46;93.94
73952;BME280;62304;47.662;18.324;2023-06-04T14:34:10;100688.84;;;17.50;94.06
73952;BME280;62304;47.662;18.324;2023-06-04T14:37:13;100683.69;;;17.35;94.46
73952;BME280;62304;47.662;18.324;2023-06-04T14:40:16;100680.84;;;17.45;94.11
73952;BME280;62304;47.662;18.324;2023-06-04T14:43:19;100678.41;;;17.54;94.39
73952;BME280;62304;47.662;18.324;2023-06-04T14:46:22;100681.59;;;17.56;93.22
73952;BME280;62304;47.662;18.324;2023-06-04T14:49:26;100669.12;;;17.64;93.33
73952;BME280;62304;47.662;18.324;2023-06-04T14:52:30;100666.59;;;17.80;91.68
73952;BME280;62304;47.662;18.324;2023-06-04T14:55:34;100662.12;;;17.93;92.65
73952;BME280;62304;47.662;18.324;2023-06-04T14:58:37;100661.63;;;18.05;92.94
73952;BME280;62304;47.662;18.324;2023-06-04T15:01:41;100651.91;;;18.13;90.06
73952;BME280;62304;47.662;18.324;2023-06-04T15:04:46;100651.13;;;18.13;89.46
73952;BME280;62304;47.662;18.324;2023-06-04T15:07:49;100653.47;;;18.21;89.53
73952;BME280;62304;47.662;18.324;2023-06-04T15:10:52;100649.38;;;18.29;89.54
73952;BME280;62304;47.662;18.324;2023-06-04T15:13:55;100647.16;;;18.10;88.39
73952;BME280;62304;47.662;18.324;2023-06-04T15:16:58;100653.69;;;18.44;89.95
73952;BME280;62304;47.662;18.324;2023-06-04T15:20:04;100645.16;;;18.55;88.65
73952;BME280;62304;47.662;18.324;2023-06-04T15:23:08;100647.41;;;18.70;87.33
73952;BME280;62304;47.662;18.324;2023-06-04T15:26:11;100640.91;;;18.77;87.35
73952;BME280;62304;47.662;18.324;2023-06-04T15:29:14;100642.84;;;18.83;85.90
73952;BME280;62304;47.662;18.324;2023-06-04T15:32:18;100632.38;;;18.87;85.83
73952;BME280;62304;47.662;18.324;2023-06-04T15:35:22;100627.97;;;18.86;84.11
73952;BME280;62304;47.662;18.324;2023-06-04T15:38:25;100629.56;;;18.87;83.70
73952;BME280;62304;47.662;18.324;2023-06-04T15:41:28;100633.97;;;18.88;84.77
73952;BME280;62304;47.662;18.324;2023-06-04T15:44:31;100629.81;;;18.96;84.57
73952;BME280;62304;47.662;18.324;2023-06-04T15:47:34;100638.16;;;19.07;87.57
73952;BME280;62304;47.662;18.324;2023-06-04T15:50:37;100636.50;;;19.09;84.68
73952;BME280;62304;47.662;18.324;2023-06-04T15:53:40;100627.69;;;19.07;84.51